Airfield :
LOGIN :

Register | Disclaimer

   EN    FR    IT 

 










Legend :    VFR   Marginal VFR   IFR   Intensive IFR   Very Intensive IFR
Visi :
Ceiling :
>= 8 km
>= 3000ft
5 to 8 km
1000 to 3000 ft
1500m to 5 km
500 to 1000 ft
800 to 1500m
200 to 500 ft
< 800m
< 200 ft
Symbols :   Thunderstorms  Fog  Heavy snow  Heavy precipitations  Wind > 20 kt
SIGMETs :     Misc.  Thunderstorms  Icing  Turbulence  Mountain Waves  Volcanic Ashes






- Airport Elevation : 277 ft
- IATA code : JER


EGJJ - Jersey

CURRENT METAR :
  • 152050Z 35023G33KT 9999 -RA FEW020 SCT036 08/05 Q1001 RERA

EXPIRED METARs :
  • 152020Z 35021KT 310V010 9999 VCSH FEW024 SCT032 09/05 Q1001
  • 151950Z 35017G28KT 320V020 9999 VCSH FEW002 BKN023 09/06 Q1001
  • 151920Z 36018KT 9999 -RA FEW018 BKN022 08/06 Q1001
  • 151850Z 35013KT 9999 -RA FEW019 SCT029 08/06 Q1001 RERA
  • 151820Z 34013KT 9999 +RA FEW013 SCT026 07/05 Q1002

TAF TAF EGJJ
Valid from the 15 at 21:00 until the 16 at 06:00 UTC


152002Z 1521/1606 36020KT 9999 -RA BKN020
TEMPO 1521/1606 35023G35KT 8000 RA BKN015
PROB30
TEMPO 1521/1606 3000 +RA SCT004 BKN012CB
ATIS : +44 1534 498 073



MET'MAP, your aeronautical weather chart ! - Copyright ORBIFLY December 2007 - Disclaimer

ORBIFLY MET'MAP TEAM :

Programming & Development : Alexandra Zaïnal
Concept & Development : Baudouin d'Aumeries
Co-Development & Prog : Marc-Olivier Méhu
Technical & hardware support : Manuel Goepfert

Contact : metmap@orbifly.com




SOURCES & CREDITS :

   NOAA